Time;durP1;ratioP1;P1;durP2;ratioP2;P2;SDS_P1;SDS_P2;PMS_P1;PMS_P2;Temp;Humidity;BMP_temperature;BMP_pressure;BME280_temperature;BME280_humidity;BME280_pressure;Samples;Min_cycle;Max_cycle;Signal;HPM_P1;HPM_P2
2022/12/26 00:01:44;;;;;;;4.20;2.60;;;;;;;4.81;nan;-23950.84;5013385;28;20242;-70
2022/12/26 00:04:09;;;;;;;3.17;2.40;;;;;;;5.11;nan;-23959.41;5014771;28;20219;-70
2022/12/26 00:06:35;;;;;;;2.47;2.27;;;;;;;4.87;nan;-23952.56;5014622;28;20552;-71
2022/12/26 00:09:02;;;;;;;3.70;2.73;;;;;;;5.30;nan;-23964.66;5014722;28;20262;-72
2022/12/26 00:11:28;;;;;;;2.90;2.43;;;;;;;5.01;nan;-23956.56;5013223;28;20678;-71
2022/12/26 00:13:56;;;;;;;2.53;1.90;;;;;;;4.82;nan;-23951.28;5014463;28;20326;-72
2022/12/26 00:16:22;;;;;;;5.53;2.40;;;;;;;5.03;nan;-23957.13;5014556;28;20204;-71
2022/12/26 00:18:47;;;;;;;2.30;2.10;;;;;;;5.07;nan;-23958.13;5014552;28;20169;-71
2022/12/26 00:21:15;;;;;;;3.63;2.20;;;;;;;4.55;nan;-23943.59;5014141;28;20180;-72
2022/12/26 00:23:41;;;;;;;3.07;2.27;;;;;;;4.48;nan;-23941.47;5014709;28;20274;-71
2022/12/26 00:26:09;;;;;;;3.50;2.20;;;;;;;4.45;nan;-23940.75;5014291;28;20208;-71
2022/12/26 00:28:35;;;;;;;2.77;2.03;;;;;;;4.41;nan;-23939.75;5014443;28;20251;-70
2022/12/26 00:31:10;;;;;;;3.03;2.47;;;;;;;4.25;nan;-23935.22;5014230;28;20230;-70
2022/12/26 00:33:37;;;;;;;2.40;2.10;;;;;;;4.56;nan;-23943.88;5014660;28;20183;-70
2022/12/26 00:36:05;;;;;;;2.10;1.90;;;;;;;4.75;nan;-23949.31;5014358;28;20223;-70
2022/12/26 00:38:30;;;;;;;2.63;2.07;;;;;;;4.80;nan;-23950.56;5014282;28;20183;-70
2022/12/26 00:40:55;;;;;;;2.30;2.03;;;;;;;4.53;nan;-23942.91;5014171;28;20176;-70
2022/12/26 00:43:21;;;;;;;3.10;2.80;;;;;;;4.45;nan;-23940.75;5014103;28;20199;-72
2022/12/26 00:45:47;;;;;;;4.17;2.30;;;;;;;4.56;nan;-23943.88;5014096;28;20257;-71
2022/12/26 00:48:13;;;;;;;3.83;2.23;;;;;;;4.38;nan;-23938.91;5013913;28;20208;-71
2022/12/26 00:50:38;;;;;;;2.53;2.00;;;;;;;4.09;nan;-23930.66;5013665;28;20202;-71
2022/12/26 00:53:04;;;;;;;3.80;2.03;;;;;;;4.71;nan;-23948.03;5013789;28;20207;-71
2022/12/26 00:55:29;;;;;;;2.13;2.03;;;;;;;4.66;nan;-23946.59;5013752;28;20187;-71
2022/12/26 00:57:55;;;;;;;2.70;2.00;;;;;;;4.65;nan;-23946.31;5013942;28;20323;-70
2022/12/26 01:00:20;;;;;;;2.80;2.20;;;;;;;4.63;nan;-23945.75;5013980;28;20175;-72
2022/12/26 01:02:45;;;;;;;2.70;2.10;;;;;;;4.47;nan;-23941.31;5013619;28;20172;-71
2022/12/26 01:05:11;;;;;;;6.30;2.60;;;;;;;4.61;nan;-23945.31;5013885;28;20179;-70
2022/12/26 01:07:37;;;;;;;3.40;2.53;;;;;;;4.74;nan;-23949.00;5013033;28;20677;-70
2022/12/26 01:10:04;;;;;;;3.60;2.60;;;;;;;4.28;nan;-23936.06;5012981;28;20632;-69
2022/12/26 01:12:30;;;;;;;3.93;2.70;;;;;;;4.49;nan;-23941.91;5013406;28;20176;-70
2022/12/26 01:14:57;;;;;;;3.73;2.60;;;;;;;4.55;nan;-23943.47;5013686;28;20183;-70
2022/12/26 01:17:22;;;;;;;2.40;2.17;;;;;;;4.40;nan;-23939.34;5013552;28;20686;-70
2022/12/26 01:19:48;;;;;;;4.90;3.10;;;;;;;4.44;nan;-23940.47;5012781;28;20184;-70
2022/12/26 01:22:13;;;;;;;3.77;2.30;;;;;;;4.56;nan;-23943.88;5013211;28;20172;-70
2022/12/26 01:24:38;;;;;;;5.23;2.60;;;;;;;4.49;nan;-23941.75;5013521;28;20570;-70
2022/12/26 01:27:04;;;;;;;2.50;2.10;;;;;;;4.24;nan;-23934.91;5013174;28;20195;-70
2022/12/26 01:29:29;;;;;;;3.13;2.23;;;;;;;4.28;nan;-23936.06;5013088;28;20180;-71
2022/12/26 01:31:55;;;;;;;4.90;2.90;;;;;;;4.15;nan;-23932.34;5013170;28;20176;-70
2022/12/26 01:34:20;;;;;;;6.00;3.07;;;;;;;4.14;nan;-23931.94;5012552;28;20176;-70
2022/12/26 01:36:45;;;;;;;4.90;3.23;;;;;;;4.35;nan;-23937.91;5013719;28;20267;-70
2022/12/26 01:39:11;;;;;;;5.83;3.13;;;;;;;4.44;nan;-23940.47;5013396;28;20234;-70
2022/12/26 01:41:36;;;;;;;2.90;2.03;;;;;;;4.29;nan;-23936.19;5013148;28;20195;-70
2022/12/26 01:44:06;;;;;;;3.67;2.43;;;;;;;3.97;nan;-23927.38;5012778;28;20184;-69
2022/12/26 01:46:37;;;;;;;3.77;2.70;;;;;;;4.23;nan;-23934.63;5012664;28;20294;-70
2022/12/26 01:49:12;;;;;;;3.00;2.63;;;;;;;4.20;nan;-23933.63;5013037;28;20636;-70
2022/12/26 01:51:42;;;;;;;5.67;3.63;;;;;;;4.07;nan;-23930.06;5013221;28;20175;-69
2022/12/26 01:54:10;;;;;;;4.87;2.60;;;;;;;4.07;nan;-23929.94;5012763;28;20297;-70
2022/12/26 01:56:40;;;;;;;7.10;3.33;;;;;;;4.12;nan;-23931.34;5012686;28;20255;-70
2022/12/26 01:59:12;;;;;;;2.83;2.50;;;;;;;3.66;nan;-23918.41;5012865;28;20184;-70
2022/12/26 02:01:41;;;;;;;5.63;2.50;;;;;;;3.61;nan;-23916.97;5012439;28;20210;-70
2022/12/26 02:06:56;;;;;;;3.67;2.90;;;;;;;3.39;nan;-23910.84;5012989;28;20605;-70
2022/12/26 02:09:22;;;;;;;3.73;2.20;;;;;;;3.07;nan;-23901.84;5012417;28;20176;-71
2022/12/26 02:11:54;;;;;;;3.10;2.07;;;;;;;3.01;nan;-23900.16;5012186;28;20176;-70
2022/12/26 02:14:20;;;;;;;2.27;2.07;;;;;;;3.21;nan;-23905.84;5012531;28;20580;-70
2022/12/26 02:16:45;;;;;;;3.60;2.47;;;;;;;3.28;nan;-23907.84;5012576;28;20230;-70
2022/12/26 02:19:28;;;;;;;2.77;2.47;;;;;;;3.01;nan;-23900.28;5012532;28;20175;-70
2022/12/26 02:22:12;;;;;;;6.77;2.87;;;;;;;3.19;nan;-23905.28;5011809;28;20674;-70
2022/12/26 02:24:48;;;;;;;2.80;2.40;;;;;;;3.08;nan;-23902.28;5012399;28;20180;-70
2022/12/26 02:27:32;;;;;;;2.00;1.70;;;;;;;3.14;nan;-23903.72;5012360;28;20199;-70
2022/12/26 02:30:04;;;;;;;3.23;2.67;;;;;;;3.07;nan;-23901.84;5012355;28;20218;-70
2022/12/26 02:32:44;;;;;;;2.30;2.00;;;;;;;3.12;nan;-23903.28;5012283;28;20181;-70
2022/12/26 02:35:18;;;;;;;2.00;1.90;;;;;;;3.18;nan;-23905.00;5012340;28;20213;-70
2022/12/26 02:38:19;;;;;;;4.87;2.70;;;;;;;3.20;nan;-23905.56;5012337;28;20258;-70
2022/12/26 02:41:25;;;;;;;3.10;2.50;;;;;;;3.11;nan;-23903.13;5012329;28;20242;-70
2022/12/26 02:47:01;;;;;;;3.73;2.40;;;;;;;2.70;nan;-23891.31;5012028;28;20176;-69
2022/12/26 02:47:13;;;;;;;3.60;2.37;;;;;;;2.99;nan;-23899.56;5011498;28;20206;-70
2022/12/26 03:13:27;;;;;;;9.37;3.07;;;;;;;2.30;nan;-23880.03;5012438;28;20646;-71
2022/12/26 03:18:45;;;;;;;1.90;1.80;;;;;;;2.46;nan;-23884.59;5011539;28;20241;-70
2022/12/26 03:21:11;;;;;;;4.93;2.50;;;;;;;2.56;nan;-23887.59;5011642;28;20175;-70
2022/12/26 03:23:39;;;;;;;5.03;2.47;;;;;;;2.51;nan;-23886.03;5011846;28;20235;-70
2022/12/26 03:26:39;;;;;;;3.43;1.87;;;;;;;2.17;nan;-23876.47;5011931;28;20169;-70
2022/12/26 03:32:01;;;;;;;3.73;3.00;;;;;;;2.28;nan;-23879.44;5012504;28;20230;-70
2022/12/26 03:34:27;;;;;;;4.10;2.50;;;;;;;2.32;nan;-23880.59;5015315;28;20686;-71
2022/12/26 03:37:23;;;;;;;4.00;2.53;;;;;;;2.29;nan;-23879.88;5015101;28;20230;-70
2022/12/26 04:20:31;;;;;;;8.37;2.67;;;;;;;2.18;nan;-23876.88;5014518;28;20285;-70
2022/12/26 04:46:01;;;;;;;4.47;2.33;;;;;;;1.94;nan;-23869.88;5013525;28;20618;-70
2022/12/26 04:51:11;;;;;;;4.37;2.67;;;;;;;1.88;nan;-23868.31;5014096;28;20191;-71
2022/12/26 04:53:36;;;;;;;6.40;2.93;;;;;;;1.87;nan;-23868.03;5014115;28;20255;-70
2022/12/26 04:56:02;;;;;;;22.53;2.43;;;;;;;1.80;nan;-23866.03;5014136;28;20183;-71
2022/12/26 04:58:27;;;;;;;3.50;2.53;;;;;;;1.99;nan;-23871.31;5013944;28;20686;-71
2022/12/26 05:09:32;;;;;;;3.87;2.37;;;;;;;1.78;nan;-23865.59;5013670;28;20176;-71
2022/12/26 05:11:54;;;;;;;4.93;3.50;;;;;;;1.10;nan;-23846.16;5013857;28;20178;-70
2022/12/26 05:14:19;;;;;;;3.57;2.57;;;;;;;1.62;nan;-23860.88;5013385;28;20173;-70
2022/12/26 05:30:27;;;;;;;2.43;2.23;;;;;;;0.97;nan;-23842.59;5016685;28;20200;-70
2022/12/26 05:35:38;;;;;;;2.50;1.93;;;;;;;1.31;nan;-23852.16;5015932;28;20193;-70
2022/12/26 05:38:04;;;;;;;4.60;2.63;;;;;;;1.12;nan;-23846.72;5017435;28;20651;-70
2022/12/26 05:40:29;;;;;;;3.93;2.40;;;;;;;1.04;nan;-23844.59;5017955;28;20256;-70
2022/12/26 05:42:55;;;;;;;2.50;2.30;;;;;;;0.71;nan;-23835.16;5015544;28;20191;-70
2022/12/26 05:45:20;;;;;;;3.33;1.97;;;;;;;0.86;nan;-23839.44;5016750;28;20187;-70
2022/12/26 05:47:46;;;;;;;3.33;2.67;;;;;;;0.68;nan;-23834.28;5015062;28;20207;-70
2022/12/26 05:50:11;;;;;;;3.87;2.70;;;;;;;0.68;nan;-23834.44;5018274;28;20176;-70
2022/12/26 05:52:37;;;;;;;3.87;2.60;;;;;;;0.94;nan;-23841.59;5014400;28;20187;-70
2022/12/26 05:55:02;;;;;;;2.60;2.40;;;;;;;1.02;nan;-23843.88;5017277;28;20180;-70
2022/12/26 05:57:28;;;;;;;3.50;2.30;;;;;;;1.02;nan;-23843.88;5015891;28;20194;-70
2022/12/26 05:59:53;;;;;;;6.57;2.77;;;;;;;0.67;nan;-23834.00;5017209;28;20192;-70
2022/12/26 06:02:19;;;;;;;3.10;2.27;;;;;;;1.09;nan;-23846.03;5016933;28;20185;-70
2022/12/26 06:04:44;;;;;;;2.70;2.10;;;;;;;1.01;nan;-23843.72;5014510;28;20249;-70
2022/12/26 06:07:10;;;;;;;3.93;2.93;;;;;;;1.13;nan;-23847.03;5017635;28;20670;-70
2022/12/26 06:09:35;;;;;;;4.67;2.90;;;;;;;0.98;nan;-23842.88;5016017;28;20268;-70
2022/12/26 06:12:01;;;;;;;3.20;2.90;;;;;;;0.78;nan;-23837.28;5016859;28;20181;-70
2022/12/26 06:14:26;;;;;;;5.07;2.67;;;;;;;1.23;nan;-23849.88;5016879;28;20688;-70
2022/12/26 06:16:51;;;;;;;3.87;2.97;;;;;;;1.19;nan;-23848.75;5017304;28;20179;-71
2022/12/26 06:19:17;;;;;;;3.87;2.10;;;;;;;1.31;nan;-23852.31;5015890;28;20188;-70
2022/12/26 06:21:43;;;;;;;3.13;2.40;;;;;;;1.05;nan;-23844.88;5021223;28;20555;-70
2022/12/26 06:24:08;;;;;;;4.40;2.70;;;;;;;1.49;nan;-23857.31;5018104;28;20186;-70
2022/12/26 06:26:33;;;;;;;3.03;2.27;;;;;;;1.15;nan;-23847.75;5015683;28;20194;-71
2022/12/26 06:28:59;;;;;;;6.17;3.27;;;;;;;1.19;nan;-23848.75;5016908;28;20199;-71
2022/12/26 06:31:24;;;;;;;3.00;2.63;;;;;;;1.73;nan;-23864.16;5016704;28;20235;-71
2022/12/26 06:33:54;;;;;;;4.23;2.13;;;;;;;1.69;nan;-23863.03;5016646;28;20183;-70
2022/12/26 06:36:22;;;;;;;2.80;2.60;;;;;;;1.63;nan;-23861.31;5016237;28;20608;-70
2022/12/26 06:38:47;;;;;;;3.67;3.20;;;;;;;1.36;nan;-23853.44;5016075;28;20187;-71
2022/12/26 06:41:16;;;;;;;3.13;2.83;;;;;;;1.16;nan;-23847.88;5015054;28;20187;-71
2022/12/26 06:43:42;;;;;;;5.50;3.37;;;;;;;1.83;nan;-23866.88;5016425;28;20194;-71
2022/12/26 06:46:12;;;;;;;3.13;2.57;;;;;;;1.92;nan;-23869.31;5016835;28;20191;-71
2022/12/26 06:48:40;;;;;;;4.73;2.80;;;;;;;1.98;nan;-23871.03;5015663;28;20208;-72
2022/12/26 06:51:09;;;;;;;3.93;2.27;;;;;;;2.01;nan;-23871.88;5015919;28;20183;-71
2022/12/26 06:53:35;;;;;;;5.60;2.97;;;;;;;2.19;nan;-23877.03;5015701;28;20652;-71
2022/12/26 06:56:15;;;;;;;4.13;3.10;;;;;;;1.77;nan;-23865.16;5016317;28;20202;-71
2022/12/26 06:58:41;;;;;;;4.30;2.47;;;;;;;1.91;nan;-23869.16;5015649;28;20184;-71
2022/12/26 07:01:09;;;;;;;3.03;2.03;;;;;;;2.36;nan;-23881.88;5016823;28;20550;-71
2022/12/26 07:03:34;;;;;;;3.30;2.93;;;;;;;1.95;nan;-23870.16;5016687;28;20583;-72
2022/12/26 07:06:15;;;;;;;3.47;2.67;;;;;;;2.20;nan;-23877.31;5014898;28;20179;-71
2022/12/26 07:08:40;;;;;;;3.07;2.47;;;;;;;2.53;nan;-23886.75;5019371;28;20265;-71
2022/12/26 07:11:13;;;;;;;2.97;2.33;;;;;;;2.82;nan;-23894.72;5015827;28;20657;-70
2022/12/26 07:13:39;;;;;;;4.27;3.23;;;;;;;1.36;nan;-23853.59;5015435;28;20643;-70
2022/12/26 07:16:04;;;;;;;2.67;2.30;;;;;;;2.44;nan;-23884.16;5015462;28;20172;-71
2022/12/26 07:18:29;;;;;;;3.27;2.60;;;;;;;2.49;nan;-23885.44;5015736;28;20547;-71
2022/12/26 07:20:55;;;;;;;3.80;2.23;;;;;;;2.52;nan;-23886.44;5015790;28;20198;-71
2022/12/26 07:23:20;;;;;;;3.20;2.37;;;;;;;2.57;nan;-23887.88;5015760;28;20180;-71
2022/12/26 07:25:47;;;;;;;7.33;2.80;;;;;;;2.91;nan;-23897.44;5015872;28;20179;-71
2022/12/26 07:28:14;;;;;;;2.40;2.20;;;;;;;2.94;nan;-23898.28;5015083;28;20270;-71
2022/12/26 07:30:45;;;;;;;2.50;2.30;;;;;;;2.70;nan;-23891.31;5015564;28;20177;-71
2022/12/26 07:33:10;;;;;;;1.77;1.60;;;;;;;2.80;nan;-23894.16;5015293;28;20329;-71
2022/12/26 07:35:36;;;;;;;2.53;2.20;;;;;;;2.74;nan;-23892.44;5015182;28;20700;-71
2022/12/26 07:38:01;;;;;;;3.40;2.50;;;;;;;2.92;nan;-23897.72;5015021;28;20549;-71
2022/12/26 07:40:28;;;;;;;5.40;2.93;;;;;;;3.05;nan;-23901.44;5015509;28;20172;-70
2022/12/26 07:42:53;;;;;;;3.27;2.47;;;;;;;3.34;nan;-23909.56;5014854;28;20241;-71
2022/12/26 07:45:19;;;;;;;3.23;2.60;;;;;;;3.96;nan;-23926.94;5015057;28;20594;-71
2022/12/26 07:47:44;;;;;;;3.07;2.23;;;;;;;3.69;nan;-23919.25;5015265;28;20622;-71
2022/12/26 07:50:10;;;;;;;2.37;2.03;;;;;;;3.91;nan;-23925.53;5014754;28;20168;-71
2022/12/26 07:52:35;;;;;;;5.03;2.20;;;;;;;3.74;nan;-23920.81;5014927;28;20233;-70
2022/12/26 07:55:01;;;;;;;5.67;2.57;;;;;;;4.14;nan;-23932.06;5014744;28;20239;-71
2022/12/26 07:57:26;;;;;;;3.13;2.87;;;;;;;4.03;nan;-23928.78;5014575;28;20176;-71
2022/12/26 07:59:52;;;;;;;3.73;2.50;;;;;;;3.84;nan;-23923.53;5014689;28;20176;-70
2022/12/26 08:02:17;;;;;;;3.13;2.60;;;;;;;4.19;nan;-23933.34;5014946;28;20560;-70
2022/12/26 08:04:42;;;;;;;3.37;2.50;;;;;;;4.11;nan;-23931.06;5014575;28;20224;-71
2022/12/26 08:07:08;;;;;;;4.20;3.30;;;;;;;4.39;nan;-23939.06;5014007;28;20196;-71
2022/12/26 08:09:34;;;;;;;3.70;3.07;;;;;;;4.74;nan;-23948.88;5014539;28;20227;-72
2022/12/26 08:11:59;;;;;;;3.73;3.07;;;;;;;4.88;nan;-23953.00;5014035;28;20566;-72
2022/12/26 08:14:25;;;;;;;4.90;2.60;;;;;;;5.01;nan;-23956.56;5013562;28;20206;-74
2022/12/26 08:16:50;;;;;;;5.77;2.87;;;;;;;5.07;nan;-23958.25;5013827;28;20587;-71
2022/12/26 08:19:15;;;;;;;5.33;2.60;;;;;;;5.04;nan;-23957.41;5013533;28;20697;-73
2022/12/26 08:21:41;;;;;;;4.40;3.00;;;;;;;5.09;nan;-23958.81;5013701;28;20244;-71
2022/12/26 08:24:06;;;;;;;4.43;3.27;;;;;;;5.36;nan;-23966.22;5013575;28;20198;-71
2022/12/26 08:26:32;;;;;;;4.73;3.03;;;;;;;5.22;nan;-23962.38;5013670;28;20235;-71
2022/12/26 08:28:57;;;;;;;5.70;3.53;;;;;;;5.40;nan;-23967.50;5013722;28;20173;-72
2022/12/26 08:31:22;;;;;;;6.90;4.80;;;;;;;5.49;nan;-23970.06;5014046;28;20248;-71
2022/12/26 08:33:48;;;;;;;7.60;4.30;;;;;;;5.58;nan;-23972.63;5013821;28;20176;-71
2022/12/26 08:36:17;;;;;;;4.80;4.17;;;;;;;5.64;nan;-23974.31;5013407;28;20243;-71
2022/12/26 08:38:42;;;;;;;6.37;3.83;;;;;;;6.07;nan;-23986.41;5012446;28;20563;-71
2022/12/26 08:41:07;;;;;;;7.93;3.10;;;;;;;5.97;nan;-23983.41;5012981;28;20168;-71
2022/12/26 08:43:33;;;;;;;4.30;3.00;;;;;;;6.00;nan;-23984.41;5011626;28;20176;-72
2022/12/26 08:46:01;;;;;;;4.77;2.77;;;;;;;5.79;nan;-23978.44;5013309;28;20191;-71
2022/12/26 08:48:28;;;;;;;4.93;3.10;;;;;;;6.05;nan;-23985.84;5013298;28;20196;-71
2022/12/26 08:51:02;;;;;;;5.80;2.97;;;;;;;6.62;nan;-24001.75;5013398;28;20183;-70
2022/12/26 08:53:29;;;;;;;3.30;2.67;;;;;;;6.33;nan;-23993.50;5013575;28;20171;-70
2022/12/26 08:55:55;;;;;;;4.67;3.27;;;;;;;6.63;nan;-24002.03;5013522;28;20172;-71
2022/12/26 08:58:21;;;;;;;4.93;3.43;;;;;;;6.79;nan;-24006.44;5013820;28;20277;-71
2022/12/26 09:00:47;;;;;;;3.00;2.70;;;;;;;6.75;nan;-24005.28;5013386;28;20560;-71
2022/12/26 09:03:14;;;;;;;3.23;2.40;;;;;;;6.59;nan;-24000.88;5013621;28;20224;-71
2022/12/26 09:05:39;;;;;;;2.97;2.70;;;;;;;7.22;nan;-24018.47;5013878;28;20199;-70
2022/12/26 09:08:05;;;;;;;3.07;2.77;;;;;;;6.88;nan;-24009.13;5013522;28;20659;-71
2022/12/26 09:10:30;;;;;;;4.17;2.70;;;;;;;7.01;nan;-24012.81;5013817;28;20171;-71
2022/12/26 09:12:56;;;;;;;5.57;3.37;;;;;;;7.02;nan;-24012.94;5013822;28;20240;-71
2022/12/26 09:15:21;;;;;;;4.20;2.80;;;;;;;7.25;nan;-24019.34;5014077;28;20172;-70
2022/12/26 09:17:47;;;;;;;3.60;2.90;;;;;;;7.32;nan;-24021.47;5013750;28;20197;-72
2022/12/26 09:20:12;;;;;;;4.20;3.30;;;;;;;7.54;nan;-24027.56;5013783;28;20191;-71
2022/12/26 09:22:49;;;;;;;4.80;3.00;;;;;;;7.38;nan;-24023.16;5013280;28;20176;-71
2022/12/26 09:25:15;;;;;;;5.07;2.97;;;;;;;7.74;nan;-24033.06;5012843;28;20630;-72
2022/12/26 09:27:41;;;;;;;6.27;3.37;;;;;;;7.65;nan;-24030.66;5012897;28;20200;-71
2022/12/26 09:30:07;;;;;;;4.50;2.93;;;;;;;7.55;nan;-24027.84;5012538;28;20183;-71
2022/12/26 09:32:33;;;;;;;3.60;2.80;;;;;;;7.86;nan;-24036.63;5013031;28;20199;-72
2022/12/26 09:34:59;;;;;;;7.03;3.07;;;;;;;8.22;nan;-24046.53;5013321;28;20242;-72
2022/12/26 09:37:24;;;;;;;6.80;3.00;;;;;;;8.05;nan;-24041.84;5012981;28;20180;-72
2022/12/26 09:39:49;;;;;;;4.70;3.20;;;;;;;8.24;nan;-24047.09;5012978;28;20179;-71
2022/12/26 09:42:30;;;;;;;8.07;3.57;;;;;;;8.48;nan;-24053.75;5012920;28;20172;-72
2022/12/26 09:45:04;;;;;;;3.43;2.53;;;;;;;8.28;nan;-24048.22;5012823;28;20227;-71
2022/12/26 09:47:31;;;;;;;4.30;3.13;;;;;;;8.78;nan;-24062.38;5012889;28;20234;-72
2022/12/26 09:50:04;;;;;;;4.93;3.17;;;;;;;8.84;nan;-24063.94;5013026;28;20596;-72
2022/12/26 09:52:39;;;;;;;4.50;3.03;;;;;;;9.10;nan;-24071.16;5012565;28;20171;-72
2022/12/26 09:55:29;;;;;;;5.80;2.92;;;;;;;9.30;nan;-24076.94;5014054;28;20189;-72
2022/12/26 09:57:59;;;;;;;5.32;2.67;;;;;;;8.95;nan;-24066.91;5012499;28;20620;-71
2022/12/26 10:00:35;;;;;;;4.35;2.85;;;;;;;9.24;nan;-24075.13;5012972;28;20693;-71
2022/12/26 10:03:01;;;;;;;5.20;3.63;;;;;;;9.37;nan;-24078.78;5012391;28;20236;-71
2022/12/26 10:05:37;;;;;;;2.90;2.53;;;;;;;9.49;nan;-24082.19;5012312;28;20187;-70
2022/12/26 10:08:30;;;;;;;3.55;2.88;;;;;;;9.46;nan;-24081.34;5012651;28;20216;-71
2022/12/26 10:11:01;;;;;;;5.38;3.20;;;;;;;8.99;nan;-24068.19;5013008;28;20200;-71
2022/12/26 10:13:49;;;;;;;4.25;3.00;;;;;;;9.09;nan;-24070.88;5012414;28;20172;-71
2022/12/26 10:16:23;;;;;;;4.28;3.03;;;;;;;9.33;nan;-24077.66;5012675;28;20172;-71
2022/12/26 10:19:24;;;;;;;3.55;2.78;;;;;;;9.25;nan;-24075.41;5012652;28;20658;-71
2022/12/26 10:22:06;;;;;;;4.38;2.45;;;;;;;8.84;nan;-24063.94;5011945;28;20171;-71
2022/12/26 10:24:34;;;;;;;4.75;2.80;;;;;;;8.98;nan;-24067.75;5017358;28;20195;-72
2022/12/26 10:27:04;;;;;;;2.33;1.95;;;;;;;9.20;nan;-24074.00;5004140;28;20221;-72
2022/12/26 10:29:35;;;;;;;4.32;2.30;;;;;;;9.24;nan;-24075.13;5012427;28;20242;-71
2022/12/26 10:32:10;;;;;;;4.95;2.70;;;;;;;9.45;nan;-24081.06;5012469;28;20172;-72
2022/12/26 10:34:41;;;;;;;3.55;2.80;;;;;;;8.99;nan;-24068.03;4992210;28;20245;-71
2022/12/26 10:37:17;;;;;;;4.60;3.08;;;;;;;9.15;nan;-24072.56;4992696;28;20207;-71
2022/12/26 10:39:50;;;;;;;3.63;2.72;;;;;;;9.55;nan;-24083.88;4992562;28;20172;-71
2022/12/26 10:42:32;;;;;;;6.15;2.38;;;;;;;9.44;nan;-24080.78;4991732;28;20176;-71
2022/12/26 10:44:59;;;;;;;3.45;2.33;;;;;;;9.81;nan;-24091.09;4990809;28;20180;-73
2022/12/26 10:47:35;;;;;;;2.90;2.55;;;;;;;9.87;nan;-24092.78;4992563;28;20630;-71
2022/12/26 10:50:01;;;;;;;8.05;3.47;;;;;;;9.77;nan;-24090.09;5011598;28;20191;-71
2022/12/26 10:52:33;;;;;;;5.30;2.70;;;;;;;9.40;nan;-24079.63;5011748;28;20182;-72
2022/12/26 10:54:59;;;;;;;4.63;2.90;;;;;;;8.60;nan;-24057.28;5012137;28;20176;-71
2022/12/26 10:57:33;;;;;;;5.00;2.78;;;;;;;9.90;nan;-24093.47;5011944;28;20270;-72
2022/12/26 11:00:01;;;;;;;4.78;3.38;;;;;;;10.00;nan;-24096.31;5012602;28;20238;-71
2022/12/26 11:02:28;;;;;;;3.83;2.30;;;;;;;9.83;nan;-24091.50;5012257;28;20176;-71
2022/12/26 11:05:07;;;;;;;5.13;3.35;;;;;;;9.81;nan;-24090.94;5012362;28;20219;-71
2022/12/26 11:07:36;;;;;;;6.00;3.03;;;;;;;10.05;nan;-24097.72;5011851;28;20760;-71
2022/12/26 11:10:06;;;;;;;4.07;3.10;;;;;;;10.06;nan;-24098.16;5012124;28;20184;-70
2022/12/26 11:12:40;;;;;;;5.15;3.22;;;;;;;10.26;nan;-24103.66;5011950;28;20176;-71
2022/12/26 11:15:19;;;;;;;4.65;2.92;;;;;;;10.36;nan;-24106.34;5012197;28;20223;-71
2022/12/26 11:17:49;;;;;;;4.40;3.17;;;;;;;10.50;nan;-24110.28;5011941;28;20176;-72
2022/12/26 11:20:14;;;;;;;5.97;3.88;;;;;;;10.29;nan;-24104.50;5011056;28;20646;-71
2022/12/26 11:22:41;;;;;;;5.25;3.35;;;;;;;10.28;nan;-24104.22;5011627;28;20247;-71
2022/12/26 11:25:07;;;;;;;5.40;3.40;;;;;;;10.68;nan;-24115.38;5016555;28;20600;-71
2022/12/26 11:27:33;;;;;;;7.05;3.97;;;;;;;10.60;nan;-24113.25;5011440;28;20705;-71
2022/12/26 11:30:13;;;;;;;9.57;4.50;;;;;;;11.07;nan;-24126.22;5011718;28;20606;-70
2022/12/26 11:32:45;;;;;;;6.50;3.70;;;;;;;11.14;nan;-24128.19;5011873;28;20192;-71
2022/12/26 11:35:20;;;;;;;6.30;3.58;;;;;;;11.09;nan;-24126.78;5011472;28;20176;-71
2022/12/26 11:37:50;;;;;;;7.13;3.63;;;;;;;10.76;nan;-24117.63;5011713;28;20183;-70
2022/12/26 11:40:17;;;;;;;5.75;3.53;;;;;;;10.44;nan;-24108.75;5011971;28;20207;-72
2022/12/26 11:43:06;;;;;;;6.43;4.07;;;;;;;10.75;nan;-24117.19;5011595;28;20180;-70
2022/12/26 11:45:40;;;;;;;5.80;3.72;;;;;;;11.13;nan;-24127.91;5011718;28;20263;-71
2022/12/26 11:48:17;;;;;;;8.75;4.40;;;;;;;11.20;nan;-24129.88;5011460;28;20290;-70
2022/12/26 11:50:44;;;;;;;5.72;3.72;;;;;;;11.34;nan;-24133.84;5011534;28;20196;-70
2022/12/26 11:53:15;;;;;;;10.05;4.50;;;;;;;11.01;nan;-24124.53;5012453;28;20164;-71
2022/12/26 11:55:41;;;;;;;6.32;3.95;;;;;;;11.19;nan;-24129.47;5015237;28;20168;-70
2022/12/26 11:58:09;;;;;;;9.18;4.07;;;;;;;11.56;nan;-24139.75;5015114;28;20175;-70
2022/12/26 12:00:36;;;;;;;6.38;4.43;;;;;;;11.20;nan;-24129.88;5015066;28;20172;-71
2022/12/26 12:03:08;;;;;;;8.57;5.25;;;;;;;10.90;nan;-24121.56;5014483;28;20288;-71
2022/12/26 12:06:19;;;;;;;7.13;4.47;;;;;;;11.39;nan;-24135.25;5014867;28;20670;-71
2022/12/26 12:08:44;;;;;;;15.65;5.40;;;;;;;11.17;nan;-24128.91;5014598;28;20192;-71
2022/12/26 12:11:25;;;;;;;8.90;5.78;;;;;;;11.32;nan;-24133.13;5014712;28;20183;-71
2022/12/26 12:14:14;;;;;;;12.88;6.47;;;;;;;11.45;nan;-24136.81;5014553;28;20582;-71
2022/12/26 12:16:46;;;;;;;10.57;6.20;;;;;;;11.55;nan;-24139.47;5014190;28;20176;-71
2022/12/26 12:19:20;;;;;;;16.13;6.30;;;;;;;11.58;nan;-24140.47;5014678;28;20648;-70
2022/12/26 12:22:08;;;;;;;8.77;5.05;;;;;;;11.66;nan;-24142.56;5014653;28;20661;-70
2022/12/26 12:25:15;;;;;;;9.70;4.15;;;;;;;11.89;nan;-24149.06;5014324;28;20171;-70
2022/12/26 12:27:49;;;;;;;11.00;4.80;;;;;;;11.95;nan;-24150.88;5014204;28;20705;-71
2022/12/26 12:30:17;;;;;;;5.68;4.15;;;;;;;12.03;nan;-24152.84;5014924;28;20197;-70
2022/12/26 12:33:01;;;;;;;10.65;4.13;;;;;;;11.72;nan;-24144.25;5014223;28;20184;-70
2022/12/26 12:35:55;;;;;;;9.65;4.00;;;;;;;11.55;nan;-24139.47;5013718;28;20190;-70
2022/12/26 12:38:45;;;;;;;7.60;4.40;;;;;;;11.41;nan;-24135.66;5014138;28;20187;-71
2022/12/26 12:41:53;;;;;;;6.75;4.25;;;;;;;11.22;nan;-24130.31;5012928;28;20180;-70
2022/12/26 12:44:19;;;;;;;5.63;3.25;;;;;;;11.64;nan;-24142.00;5012929;28;20406;-72
2022/12/26 12:47:13;;;;;;;5.05;3.20;;;;;;;11.73;nan;-24144.69;5014056;28;20708;-71
2022/12/26 12:49:56;;;;;;;6.65;3.25;;;;;;;11.75;nan;-24145.13;5014548;28;20588;-70
2022/12/26 12:53:00;;;;;;;6.95;3.15;;;;;;;11.88;nan;-24148.91;5013782;28;20180;-70
2022/12/26 12:55:44;;;;;;;3.33;2.70;;;;;;;11.63;nan;-24141.72;5013482;28;20663;-71
2022/12/26 12:58:31;;;;;;;5.07;3.15;;;;;;;11.89;nan;-24149.19;5013525;28;20164;-71
2022/12/26 13:01:10;;;;;;;4.93;2.55;;;;;;;11.78;nan;-24146.09;5015622;28;20183;-72
2022/12/26 13:03:53;;;;;;;5.57;3.15;;;;;;;11.65;nan;-24142.28;5015811;28;20707;-72
2022/12/26 13:06:27;;;;;;;4.13;3.45;;;;;;;11.76;nan;-24145.41;5013023;28;20702;-71
2022/12/26 13:09:02;;;;;;;5.22;3.35;;;;;;;11.69;nan;-24143.41;5013518;28;20218;-74
2022/12/26 13:11:34;;;;;;;3.92;2.90;;;;;;;11.73;nan;-24144.56;5013798;28;20180;-71
2022/12/26 13:14:10;;;;;;;5.18;3.25;;;;;;;11.79;nan;-24146.38;5013542;28;20638;-73
2022/12/26 13:16:42;;;;;;;3.30;2.47;;;;;;;11.51;nan;-24138.63;5013243;28;20517;-71
2022/12/26 13:19:37;;;;;;;3.97;2.47;;;;;;;11.43;nan;-24136.22;5013221;28;20218;-71
2022/12/26 13:22:12;;;;;;;4.30;2.83;;;;;;;11.60;nan;-24140.88;5013099;28;20162;-70
2022/12/26 13:24:42;;;;;;;3.10;2.60;;;;;;;10.66;nan;-24114.81;5013572;28;20184;-71
2022/12/26 13:27:35;;;;;;;3.45;2.15;;;;;;;11.66;nan;-24142.56;5011932;28;20196;-71
2022/12/26 13:30:05;;;;;;;4.57;3.03;;;;;;;11.38;nan;-24134.97;5013146;28;20222;-70
2022/12/26 13:32:32;;;;;;;3.83;2.75;;;;;;;11.48;nan;-24137.78;5013121;28;20702;-70
2022/12/26 13:34:59;;;;;;;3.72;2.63;;;;;;;11.40;nan;-24135.53;5012745;28;20559;-70
2022/12/26 13:37:31;;;;;;;5.18;3.35;;;;;;;11.55;nan;-24139.47;5011656;28;20179;-71
2022/12/26 13:40:02;;;;;;;5.22;2.92;;;;;;;11.43;nan;-24136.38;5012939;28;20612;-70
2022/12/26 13:45:35;;;;;;;3.15;2.40;;;;;;;11.54;nan;-24139.34;5012650;28;20230;-69
2022/12/26 13:48:22;;;;;;;3.00;2.50;;;;;;;11.23;nan;-24130.75;5012592;28;20263;-70
2022/12/26 13:50:48;;;;;;;4.93;3.10;;;;;;;11.39;nan;-24135.25;5011394;28;20273;-70
2022/12/26 13:53:25;;;;;;;4.70;3.13;;;;;;;11.32;nan;-24133.28;5011381;28;20681;-70
2022/12/26 13:55:53;;;;;;;3.28;2.58;;;;;;;11.22;nan;-24130.47;5012943;28;20179;-70
2022/12/26 13:58:31;;;;;;;4.20;2.78;;;;;;;11.24;nan;-24130.88;5012776;28;20180;-70
2022/12/26 14:01:30;;;;;;;4.15;2.88;;;;;;;11.09;nan;-24126.78;5019884;28;20191;-71
2022/12/26 14:04:14;;;;;;;4.60;2.78;;;;;;;10.98;nan;-24123.69;5002995;28;20262;-70
2022/12/26 14:07:04;;;;;;;4.40;2.72;;;;;;;11.06;nan;-24125.94;5017366;28;20178;-70
2022/12/26 14:09:36;;;;;;;4.97;2.80;;;;;;;10.83;nan;-24119.47;5012387;28;20190;-71
2022/12/26 14:12:30;;;;;;;3.75;2.35;;;;;;;10.84;nan;-24119.75;5012496;28;20207;-72
2022/12/26 14:15:16;;;;;;;3.53;2.63;;;;;;;10.92;nan;-24122.13;5012485;28;20168;-70